Archival Weather

John F Kennedy Intl

New York, New York (KJFK)

Report from: Thursday, September 21, 2023 1:51 PM EDT
Current time: Sunday, February 25, 2024 5:01 PM EST

Current weather – Weather history – Daily summaries
Weather forecast

Temperature22.2°C (72.0°F)
Dew point10.0°C (50.0°F)
Winds 9 kts (4.6 m/s, 10.4 mph) North (10°)
Visibility10 mi. (16.1 km)
Clouds Few clouds 5,000 ft. (1,524 m)
Ceiling: Broken clouds 25,000 ft. (7,620 m)
Altimeter30.26 in.Hg (1025 mB)
Relative humidity46 %
Density altitude637 ft. (194 m)
Sea-level pressure102.5 kPa (1025 mB, 30.25 in.Hg)
Max temp last 6 hours22.2°C (72.0°F)
Min temp last 6 hours15.6°C (60.1°F)
Remarks Automated weather observing station with precipitation discriminator
Pressure falling more quickly
Flight conditions Visual Meteorological Conditions
Raw dataKJFK 211751Z 01009KT 10SM FEW050 BKN250 22/10 A3026 RMK AO2 SLP245 T02220100 10222 20156 58007
An error has occurred. This application may no longer respond until reloaded. Reload 🗙